This is the latest recevied weather packets stored in our database for station/object M0UPS-13. If no packets are shown the sender has not sent any weather packets the latest 10 day(s).
| Time | Temp. | Humidity | Pressure | Rain* | Wind** | Luminosity | Snow |
|---|---|---|---|---|---|---|---|
| 1777748102 | 15.56° C | 77% | 1011.8 hPa | 0 mm | - | 7 W/m² | - |
| 1777747803 | 15.56° C | 77% | 1011.7 hPa | 0 mm | - | 5 W/m² | - |
| 1777747503 | 15.56° C | 77% | 1011.8 hPa | 0 mm | - | 7 W/m² | - |
| 1777747202 | 15.56° C | 77% | 1011.7 hPa | 0 mm | - | 11 W/m² | - |
| 1777746902 | 15.56° C | 78% | 1011.9 hPa | 0 mm | - | 16 W/m² | - |
| 1777746602 | 15.56° C | 77% | 1011.9 hPa | 0 mm | - | 17 W/m² | - |
| 1777745404 | 15.56° C | 77% | 1011.9 hPa | 0 mm | - | 14 W/m² | - |
| 1777744802 | 15.56° C | 76% | 1012.1 hPa | 0 mm | - | 25 W/m² | - |
| 1777743908 | 15.56° C | 81% | 1012.3 hPa | 0 mm | - | 47 W/m² | - |
| 1777743002 | 15° C | 84% | 1012.1 hPa | 0 mm | - | 60 W/m² | - |
| 1777742702 | 15° C | 85% | 1012.3 hPa | 0 mm | - | 44 W/m² | - |
| 1777742407 | 15° C | 84% | 1012.2 hPa | 0 mm | - | 27 W/m² | - |
| 1777741802 | 15° C | 85% | 1012.4 hPa | 0 mm | - | 23 W/m² | - |
| 1777741502 | 15° C | 85% | 1012.5 hPa | 0 mm | - | 22 W/m² | - |
| 1777741202 | 15° C | 83% | 1012.9 hPa | 0 mm | - | 30 W/m² | - |
| 1777740902 | 15° C | 82% | 1013 hPa | 1.27 mm | - | 30 W/m² | - |
| 1777740602 | 15.56° C | 81% | 1013.1 hPa | 1.27 mm | - | 30 W/m² | - |
| 1777740303 | 15.56° C | 78% | 1013.1 hPa | 1.78 mm | - | 29 W/m² | - |
| 1777738802 | 18.89° C | 61% | 1013 hPa | 0 mm | - | 52 W/m² | - |
| 1777738502 | 19.44° C | 57% | 1013.1 hPa | 0 mm | - | 54 W/m² | - |
| 1777738207 | 20° C | 54% | 1012.9 hPa | 0 mm | - | 51 W/m² | - |
| 1777737907 | 20.56° C | 53% | 1012.9 hPa | 0 mm | - | 53 W/m² | - |
| 1777737604 | 20.56° C | 50% | 1012.9 hPa | 0 mm | - | 48 W/m² | - |
| 1777737003 | 21.11° C | 46% | 1012.8 hPa | 0 mm | - | 70 W/m² | - |
| 1777736703 | 21.11° C | 45% | 1012.9 hPa | 0 mm | - | 92 W/m² | - |
* Rain latest hour (hover to see other rain measurements)
** Current wind speed in m/s (hover to see current wind gust speed)